sensor_id;sensor_type;location;lat;lon;timestamp;P1;durP1;ratioP1;P2;durP2;ratioP2
18808;SDS011;9532;54.322;10.116;2022-11-20T00:01:36;9.13;;;5.57;;
18808;SDS011;9532;54.322;10.116;2022-11-20T00:04:03;8.67;;;5.60;;
18808;SDS011;9532;54.322;10.116;2022-11-20T00:06:31;9.43;;;6.33;;
18808;SDS011;9532;54.322;10.116;2022-11-20T00:09:02;9.20;;;5.93;;
18808;SDS011;9532;54.322;10.116;2022-11-20T00:11:36;9.23;;;5.57;;
18808;SDS011;9532;54.322;10.116;2022-11-20T00:14:04;8.07;;;6.07;;
18808;SDS011;9532;54.322;10.116;2022-11-20T00:16:33;8.57;;;5.93;;
18808;SDS011;9532;54.322;10.116;2022-11-20T00:19:00;8.90;;;6.20;;
18808;SDS011;9532;54.322;10.116;2022-11-20T00:21:28;9.50;;;6.00;;
18808;SDS011;9532;54.322;10.116;2022-11-20T00:23:56;7.57;;;5.67;;
18808;SDS011;9532;54.322;10.116;2022-11-20T00:26:25;9.20;;;6.03;;
18808;SDS011;9532;54.322;10.116;2022-11-20T00:28:53;9.63;;;5.47;;
18808;SDS011;9532;54.322;10.116;2022-11-20T00:31:21;8.40;;;5.53;;
18808;SDS011;9532;54.322;10.116;2022-11-20T00:33:50;8.43;;;5.50;;
18808;SDS011;9532;54.322;10.116;2022-11-20T00:36:18;8.43;;;4.90;;
18808;SDS011;9532;54.322;10.116;2022-11-20T00:38:50;8.47;;;5.87;;
18808;SDS011;9532;54.322;10.116;2022-11-20T00:41:18;9.73;;;6.93;;
18808;SDS011;9532;54.322;10.116;2022-11-20T00:43:45;8.23;;;6.33;;
18808;SDS011;9532;54.322;10.116;2022-11-20T00:46:13;8.23;;;5.40;;
18808;SDS011;9532;54.322;10.116;2022-11-20T00:48:41;7.27;;;5.17;;
18808;SDS011;9532;54.322;10.116;2022-11-20T00:51:11;8.23;;;5.37;;
18808;SDS011;9532;54.322;10.116;2022-11-20T00:53:40;8.47;;;5.37;;
18808;SDS011;9532;54.322;10.116;2022-11-20T00:56:10;6.87;;;4.90;;
18808;SDS011;9532;54.322;10.116;2022-11-20T00:58:39;7.53;;;4.70;;
18808;SDS011;9532;54.322;10.116;2022-11-20T01:01:08;6.43;;;4.80;;
18808;SDS011;9532;54.322;10.116;2022-11-20T01:03:37;6.57;;;4.90;;
18808;SDS011;9532;54.322;10.116;2022-11-20T01:06:06;6.03;;;4.50;;
18808;SDS011;9532;54.322;10.116;2022-11-20T01:08:38;8.93;;;4.80;;
18808;SDS011;9532;54.322;10.116;2022-11-20T01:11:06;7.17;;;5.00;;
18808;SDS011;9532;54.322;10.116;2022-11-20T01:13:35;7.00;;;4.77;;
18808;SDS011;9532;54.322;10.116;2022-11-20T01:16:06;9.47;;;4.97;;
18808;SDS011;9532;54.322;10.116;2022-11-20T01:18:35;8.10;;;4.80;;
18808;SDS011;9532;54.322;10.116;2022-11-20T01:21:03;7.33;;;4.70;;
18808;SDS011;9532;54.322;10.116;2022-11-20T01:23:33;6.70;;;4.83;;
18808;SDS011;9532;54.322;10.116;2022-11-20T01:26:03;7.43;;;5.20;;
18808;SDS011;9532;54.322;10.116;2022-11-20T01:28:32;6.77;;;4.67;;
18808;SDS011;9532;54.322;10.116;2022-11-20T01:31:00;8.37;;;4.93;;
18808;SDS011;9532;54.322;10.116;2022-11-20T01:33:27;7.10;;;4.77;;
18808;SDS011;9532;54.322;10.116;2022-11-20T01:36:02;7.87;;;5.10;;
18808;SDS011;9532;54.322;10.116;2022-11-20T01:38:31;7.63;;;4.90;;
18808;SDS011;9532;54.322;10.116;2022-11-20T01:40:58;8.70;;;5.20;;
18808;SDS011;9532;54.322;10.116;2022-11-20T01:43:27;7.03;;;4.67;;
18808;SDS011;9532;54.322;10.116;2022-11-20T01:46:04;7.17;;;5.23;;
18808;SDS011;9532;54.322;10.116;2022-11-20T01:48:39;7.33;;;5.20;;
18808;SDS011;9532;54.322;10.116;2022-11-20T01:51:12;8.37;;;5.47;;
18808;SDS011;9532;54.322;10.116;2022-11-20T01:53:45;8.60;;;5.27;;
18808;SDS011;9532;54.322;10.116;2022-11-20T01:56:13;8.10;;;5.33;;
18808;SDS011;9532;54.322;10.116;2022-11-20T01:58:43;8.60;;;5.43;;
18808;SDS011;9532;54.322;10.116;2022-11-20T02:01:15;8.83;;;5.97;;
18808;SDS011;9532;54.322;10.116;2022-11-20T02:03:42;7.80;;;5.37;;
18808;SDS011;9532;54.322;10.116;2022-11-20T02:06:11;7.40;;;5.37;;
18808;SDS011;9532;54.322;10.116;2022-11-20T02:08:43;8.30;;;5.30;;
18808;SDS011;9532;54.322;10.116;2022-11-20T02:11:10;8.13;;;5.17;;
18808;SDS011;9532;54.322;10.116;2022-11-20T02:13:38;8.70;;;5.50;;
18808;SDS011;9532;54.322;10.116;2022-11-20T02:16:10;9.53;;;5.57;;
18808;SDS011;9532;54.322;10.116;2022-11-20T02:18:40;8.83;;;5.67;;
18808;SDS011;9532;54.322;10.116;2022-11-20T02:21:09;8.30;;;4.70;;
18808;SDS011;9532;54.322;10.116;2022-11-20T02:24:01;8.90;;;5.53;;
18808;SDS011;9532;54.322;10.116;2022-11-20T02:26:31;8.17;;;5.73;;
18808;SDS011;9532;54.322;10.116;2022-11-20T02:29:01;9.77;;;6.30;;
18808;SDS011;9532;54.322;10.116;2022-11-20T02:31:33;8.37;;;5.67;;
18808;SDS011;9532;54.322;10.116;2022-11-20T02:34:03;9.10;;;5.47;;
18808;SDS011;9532;54.322;10.116;2022-11-20T02:36:30;9.20;;;5.90;;
18808;SDS011;9532;54.322;10.116;2022-11-20T02:39:02;7.87;;;5.27;;
18808;SDS011;9532;54.322;10.116;2022-11-20T02:41:35;10.10;;;5.70;;
18808;SDS011;9532;54.322;10.116;2022-11-20T02:44:03;7.90;;;5.53;;
18808;SDS011;9532;54.322;10.116;2022-11-20T02:46:32;8.60;;;5.60;;
18808;SDS011;9532;54.322;10.116;2022-11-20T02:49:00;7.87;;;5.03;;
18808;SDS011;9532;54.322;10.116;2022-11-20T02:51:28;9.37;;;5.13;;
18808;SDS011;9532;54.322;10.116;2022-11-20T02:53:55;8.47;;;5.57;;
18808;SDS011;9532;54.322;10.116;2022-11-20T02:56:24;8.50;;;4.70;;
18808;SDS011;9532;54.322;10.116;2022-11-20T02:58:52;8.57;;;5.50;;
18808;SDS011;9532;54.322;10.116;2022-11-20T03:01:19;7.83;;;5.27;;
18808;SDS011;9532;54.322;10.116;2022-11-20T03:03:46;10.27;;;5.60;;
18808;SDS011;9532;54.322;10.116;2022-11-20T03:06:14;6.90;;;4.77;;
18808;SDS011;9532;54.322;10.116;2022-11-20T03:08:42;8.40;;;5.30;;
18808;SDS011;9532;54.322;10.116;2022-11-20T03:11:09;7.93;;;5.27;;
18808;SDS011;9532;54.322;10.116;2022-11-20T03:13:38;8.23;;;4.80;;
18808;SDS011;9532;54.322;10.116;2022-11-20T03:16:06;7.47;;;5.23;;
18808;SDS011;9532;54.322;10.116;2022-11-20T03:18:35;9.07;;;5.30;;
18808;SDS011;9532;54.322;10.116;2022-11-20T03:21:02;7.60;;;5.40;;
18808;SDS011;9532;54.322;10.116;2022-11-20T03:23:30;7.13;;;5.00;;
18808;SDS011;9532;54.322;10.116;2022-11-20T03:26:12;9.47;;;5.23;;
18808;SDS011;9532;54.322;10.116;2022-11-20T03:28:42;8.23;;;5.17;;
18808;SDS011;9532;54.322;10.116;2022-11-20T03:31:13;9.73;;;5.50;;
18808;SDS011;9532;54.322;10.116;2022-11-20T03:33:42;7.47;;;4.70;;
18808;SDS011;9532;54.322;10.116;2022-11-20T03:36:10;7.70;;;4.87;;
18808;SDS011;9532;54.322;10.116;2022-11-20T03:38:39;8.23;;;4.90;;
18808;SDS011;9532;54.322;10.116;2022-11-20T03:41:07;7.30;;;4.73;;
18808;SDS011;9532;54.322;10.116;2022-11-20T03:43:37;7.63;;;4.83;;
18808;SDS011;9532;54.322;10.116;2022-11-20T03:46:07;7.73;;;5.00;;
18808;SDS011;9532;54.322;10.116;2022-11-20T03:48:34;8.20;;;5.30;;
18808;SDS011;9532;54.322;10.116;2022-11-20T03:51:08;8.43;;;5.43;;
18808;SDS011;9532;54.322;10.116;2022-11-20T03:53:36;7.17;;;4.63;;
18808;SDS011;9532;54.322;10.116;2022-11-20T03:56:04;7.20;;;4.40;;
18808;SDS011;9532;54.322;10.116;2022-11-20T03:58:32;8.53;;;4.87;;
18808;SDS011;9532;54.322;10.116;2022-11-20T04:01:03;7.17;;;4.63;;
18808;SDS011;9532;54.322;10.116;2022-11-20T04:03:33;6.83;;;4.70;;
18808;SDS011;9532;54.322;10.116;2022-11-20T04:06:05;8.77;;;5.03;;
18808;SDS011;9532;54.322;10.116;2022-11-20T04:08:34;7.70;;;4.73;;
18808;SDS011;9532;54.322;10.116;2022-11-20T04:11:08;7.07;;;4.80;;
18808;SDS011;9532;54.322;10.116;2022-11-20T04:13:36;7.70;;;4.73;;
18808;SDS011;9532;54.322;10.116;2022-11-20T04:16:07;7.70;;;4.73;;
18808;SDS011;9532;54.322;10.116;2022-11-20T04:18:39;7.13;;;4.50;;
18808;SDS011;9532;54.322;10.116;2022-11-20T04:21:06;7.10;;;4.40;;
18808;SDS011;9532;54.322;10.116;2022-11-20T04:23:34;7.43;;;4.30;;
18808;SDS011;9532;54.322;10.116;2022-11-20T04:26:02;7.30;;;4.67;;
18808;SDS011;9532;54.322;10.116;2022-11-20T04:28:30;8.33;;;4.60;;
18808;SDS011;9532;54.322;10.116;2022-11-20T04:31:04;7.10;;;4.30;;
18808;SDS011;9532;54.322;10.116;2022-11-20T04:33:32;9.33;;;4.67;;
18808;SDS011;9532;54.322;10.116;2022-11-20T04:36:02;7.43;;;4.77;;
18808;SDS011;9532;54.322;10.116;2022-11-20T04:38:30;7.23;;;4.77;;
18808;SDS011;9532;54.322;10.116;2022-11-20T04:40:58;6.50;;;4.07;;
18808;SDS011;9532;54.322;10.116;2022-11-20T04:43:25;6.23;;;4.10;;
18808;SDS011;9532;54.322;10.116;2022-11-20T04:45:53;7.07;;;4.20;;
18808;SDS011;9532;54.322;10.116;2022-11-20T04:48:21;6.17;;;4.00;;
18808;SDS011;9532;54.322;10.116;2022-11-20T04:50:49;6.90;;;4.40;;
18808;SDS011;9532;54.322;10.116;2022-11-20T04:53:18;6.33;;;4.33;;
18808;SDS011;9532;54.322;10.116;2022-11-20T04:55:45;6.80;;;4.40;;
18808;SDS011;9532;54.322;10.116;2022-11-20T04:58:13;6.60;;;4.00;;
18808;SDS011;9532;54.322;10.116;2022-11-20T05:00:40;6.13;;;4.00;;
18808;SDS011;9532;54.322;10.116;2022-11-20T05:03:08;7.23;;;4.33;;
18808;SDS011;9532;54.322;10.116;2022-11-20T05:05:35;5.87;;;4.00;;
18808;SDS011;9532;54.322;10.116;2022-11-20T05:08:02;5.50;;;3.90;;
18808;SDS011;9532;54.322;10.116;2022-11-20T05:10:31;5.87;;;3.87;;
18808;SDS011;9532;54.322;10.116;2022-11-20T05:12:58;5.60;;;3.70;;
18808;SDS011;9532;54.322;10.116;2022-11-20T05:15:26;6.47;;;3.77;;
18808;SDS011;9532;54.322;10.116;2022-11-20T05:17:53;5.73;;;3.87;;
18808;SDS011;9532;54.322;10.116;2022-11-20T05:20:20;6.37;;;4.10;;
18808;SDS011;9532;54.322;10.116;2022-11-20T05:22:47;6.43;;;3.57;;
18808;SDS011;9532;54.322;10.116;2022-11-20T05:25:14;5.53;;;3.87;;
18808;SDS011;9532;54.322;10.116;2022-11-20T05:27:43;6.10;;;3.93;;
18808;SDS011;9532;54.322;10.116;2022-11-20T05:30:11;6.80;;;4.10;;
18808;SDS011;9532;54.322;10.116;2022-11-20T05:32:39;5.37;;;3.73;;
18808;SDS011;9532;54.322;10.116;2022-11-20T05:35:07;5.50;;;3.70;;
18808;SDS011;9532;54.322;10.116;2022-11-20T05:37:34;5.17;;;3.60;;
18808;SDS011;9532;54.322;10.116;2022-11-20T05:40:02;6.03;;;3.93;;
18808;SDS011;9532;54.322;10.116;2022-11-20T05:42:30;6.60;;;4.07;;
18808;SDS011;9532;54.322;10.116;2022-11-20T05:44:59;5.90;;;3.60;;
18808;SDS011;9532;54.322;10.116;2022-11-20T05:47:28;5.17;;;3.40;;
18808;SDS011;9532;54.322;10.116;2022-11-20T05:49:57;6.13;;;3.90;;
18808;SDS011;9532;54.322;10.116;2022-11-20T05:52:27;5.43;;;3.70;;
18808;SDS011;9532;54.322;10.116;2022-11-20T05:54:54;5.90;;;3.33;;
18808;SDS011;9532;54.322;10.116;2022-11-20T05:57:22;5.13;;;3.30;;
18808;SDS011;9532;54.322;10.116;2022-11-20T05:59:49;5.37;;;3.77;;
18808;SDS011;9532;54.322;10.116;2022-11-20T06:02:18;5.47;;;3.37;;
18808;SDS011;9532;54.322;10.116;2022-11-20T06:04:45;4.20;;;3.00;;
18808;SDS011;9532;54.322;10.116;2022-11-20T06:07:12;5.73;;;3.70;;
18808;SDS011;9532;54.322;10.116;2022-11-20T06:09:39;5.43;;;3.27;;
18808;SDS011;9532;54.322;10.116;2022-11-20T06:12:07;5.30;;;3.33;;
18808;SDS011;9532;54.322;10.116;2022-11-20T06:14:34;5.70;;;3.37;;
18808;SDS011;9532;54.322;10.116;2022-11-20T06:17:01;4.60;;;3.20;;
18808;SDS011;9532;54.322;10.116;2022-11-20T06:19:30;4.83;;;3.23;;
18808;SDS011;9532;54.322;10.116;2022-11-20T06:21:57;5.33;;;3.33;;
18808;SDS011;9532;54.322;10.116;2022-11-20T06:24:24;4.63;;;2.77;;
18808;SDS011;9532;54.322;10.116;2022-11-20T06:26:52;5.03;;;3.10;;
18808;SDS011;9532;54.322;10.116;2022-11-20T06:29:19;5.27;;;3.37;;
18808;SDS011;9532;54.322;10.116;2022-11-20T06:31:46;4.33;;;2.90;;
18808;SDS011;9532;54.322;10.116;2022-11-20T06:34:13;4.17;;;3.07;;
18808;SDS011;9532;54.322;10.116;2022-11-20T06:36:42;4.80;;;3.07;;
18808;SDS011;9532;54.322;10.116;2022-11-20T06:39:09;4.37;;;2.80;;
18808;SDS011;9532;54.322;10.116;2022-11-20T06:41:37;5.00;;;3.20;;
18808;SDS011;9532;54.322;10.116;2022-11-20T06:44:04;5.73;;;3.27;;
18808;SDS011;9532;54.322;10.116;2022-11-20T06:46:31;4.20;;;2.70;;
18808;SDS011;9532;54.322;10.116;2022-11-20T06:48:58;4.70;;;3.17;;
18808;SDS011;9532;54.322;10.116;2022-11-20T06:51:26;4.03;;;2.77;;
18808;SDS011;9532;54.322;10.116;2022-11-20T06:53:54;4.27;;;2.70;;
18808;SDS011;9532;54.322;10.116;2022-11-20T06:56:21;4.33;;;2.70;;
18808;SDS011;9532;54.322;10.116;2022-11-20T06:58:49;3.57;;;2.60;;
18808;SDS011;9532;54.322;10.116;2022-11-20T07:01:16;3.70;;;2.50;;
18808;SDS011;9532;54.322;10.116;2022-11-20T07:03:43;3.83;;;2.60;;
18808;SDS011;9532;54.322;10.116;2022-11-20T07:06:10;4.10;;;2.80;;
18808;SDS011;9532;54.322;10.116;2022-11-20T07:08:37;3.37;;;2.40;;
18808;SDS011;9532;54.322;10.116;2022-11-20T07:11:07;3.87;;;2.70;;
18808;SDS011;9532;54.322;10.116;2022-11-20T07:13:34;5.13;;;3.03;;
18808;SDS011;9532;54.322;10.116;2022-11-20T07:16:02;3.27;;;2.40;;
18808;SDS011;9532;54.322;10.116;2022-11-20T07:18:31;3.37;;;2.13;;
18808;SDS011;9532;54.322;10.116;2022-11-20T07:21:00;3.63;;;2.70;;
18808;SDS011;9532;54.322;10.116;2022-11-20T07:23:27;4.73;;;2.50;;
18808;SDS011;9532;54.322;10.116;2022-11-20T07:25:55;4.10;;;2.60;;
18808;SDS011;9532;54.322;10.116;2022-11-20T07:28:24;4.10;;;2.70;;
18808;SDS011;9532;54.322;10.116;2022-11-20T07:30:51;4.97;;;2.60;;
18808;SDS011;9532;54.322;10.116;2022-11-20T07:33:19;4.47;;;2.53;;
18808;SDS011;9532;54.322;10.116;2022-11-20T07:35:46;3.53;;;2.13;;
18808;SDS011;9532;54.322;10.116;2022-11-20T07:38:13;3.70;;;2.30;;
18808;SDS011;9532;54.322;10.116;2022-11-20T07:40:41;4.60;;;2.63;;
18808;SDS011;9532;54.322;10.116;2022-11-20T07:43:08;4.23;;;2.67;;
18808;SDS011;9532;54.322;10.116;2022-11-20T07:45:37;5.57;;;3.20;;
18808;SDS011;9532;54.322;10.116;2022-11-20T07:48:05;5.00;;;2.73;;
18808;SDS011;9532;54.322;10.116;2022-11-20T07:50:32;4.23;;;2.63;;
18808;SDS011;9532;54.322;10.116;2022-11-20T07:53:02;4.17;;;2.80;;
18808;SDS011;9532;54.322;10.116;2022-11-20T07:55:30;4.93;;;3.00;;
18808;SDS011;9532;54.322;10.116;2022-11-20T07:57:58;5.13;;;3.03;;
18808;SDS011;9532;54.322;10.116;2022-11-20T08:00:26;5.03;;;3.00;;
18808;SDS011;9532;54.322;10.116;2022-11-20T08:02:55;4.80;;;3.10;;
18808;SDS011;9532;54.322;10.116;2022-11-20T08:05:22;4.97;;;3.20;;
18808;SDS011;9532;54.322;10.116;2022-11-20T08:07:49;5.83;;;3.50;;
18808;SDS011;9532;54.322;10.116;2022-11-20T08:10:17;6.93;;;3.57;;
18808;SDS011;9532;54.322;10.116;2022-11-20T08:12:44;6.07;;;3.47;;
18808;SDS011;9532;54.322;10.116;2022-11-20T08:15:30;5.80;;;3.43;;
18808;SDS011;9532;54.322;10.116;2022-11-20T08:18:03;6.63;;;3.93;;
18808;SDS011;9532;54.322;10.116;2022-11-20T08:20:31;5.60;;;3.67;;
18808;SDS011;9532;54.322;10.116;2022-11-20T08:22:59;6.20;;;3.67;;
18808;SDS011;9532;54.322;10.116;2022-11-20T08:25:27;10.13;;;4.30;;
18808;SDS011;9532;54.322;10.116;2022-11-20T08:27:56;8.63;;;4.80;;
18808;SDS011;9532;54.322;10.116;2022-11-20T08:30:24;7.93;;;4.30;;
18808;SDS011;9532;54.322;10.116;2022-11-20T08:32:53;9.80;;;4.60;;
18808;SDS011;9532;54.322;10.116;2022-11-20T08:35:22;14.70;;;3.93;;
18808;SDS011;9532;54.322;10.116;2022-11-20T08:37:49;11.77;;;4.87;;
18808;SDS011;9532;54.322;10.116;2022-11-20T08:40:17;7.20;;;3.00;;
18808;SDS011;9532;54.322;10.116;2022-11-20T08:42:47;10.20;;;3.43;;
18808;SDS011;9532;54.322;10.116;2022-11-20T08:45:15;8.20;;;3.53;;
18808;SDS011;9532;54.322;10.116;2022-11-20T08:47:42;8.63;;;3.70;;
18808;SDS011;9532;54.322;10.116;2022-11-20T08:50:10;7.80;;;3.03;;
18808;SDS011;9532;54.322;10.116;2022-11-20T08:52:40;9.30;;;3.03;;
18808;SDS011;9532;54.322;10.116;2022-11-20T08:55:08;4.90;;;2.60;;
18808;SDS011;9532;54.322;10.116;2022-11-20T08:57:37;13.20;;;2.70;;
18808;SDS011;9532;54.322;10.116;2022-11-20T09:00:05;8.80;;;2.60;;
18808;SDS011;9532;54.322;10.116;2022-11-20T09:02:34;6.03;;;2.90;;
18808;SDS011;9532;54.322;10.116;2022-11-20T09:05:02;5.53;;;2.87;;
18808;SDS011;9532;54.322;10.116;2022-11-20T09:07:29;8.73;;;2.60;;
18808;SDS011;9532;54.322;10.116;2022-11-20T09:09:58;6.40;;;2.80;;
18808;SDS011;9532;54.322;10.116;2022-11-20T09:12:25;6.93;;;2.87;;
18808;SDS011;9532;54.322;10.116;2022-11-20T09:14:53;6.57;;;3.27;;
18808;SDS011;9532;54.322;10.116;2022-11-20T09:17:20;7.50;;;3.40;;
18808;SDS011;9532;54.322;10.116;2022-11-20T09:19:47;6.20;;;2.90;;
18808;SDS011;9532;54.322;10.116;2022-11-20T09:22:14;6.43;;;3.30;;
18808;SDS011;9532;54.322;10.116;2022-11-20T09:24:42;7.10;;;3.90;;
18808;SDS011;9532;54.322;10.116;2022-11-20T09:27:11;9.33;;;4.00;;
18808;SDS011;9532;54.322;10.116;2022-11-20T09:29:38;8.33;;;4.30;;
18808;SDS011;9532;54.322;10.116;2022-11-20T09:32:05;9.93;;;3.90;;
18808;SDS011;9532;54.322;10.116;2022-11-20T09:34:33;8.70;;;3.47;;
18808;SDS011;9532;54.322;10.116;2022-11-20T09:37:00;7.70;;;3.60;;
18808;SDS011;9532;54.322;10.116;2022-11-20T09:39:27;19.40;;;4.40;;
18808;SDS011;9532;54.322;10.116;2022-11-20T09:45:00;12.27;;;4.77;;
18808;SDS011;9532;54.322;10.116;2022-11-20T09:47:42;11.50;;;5.07;;
18808;SDS011;9532;54.322;10.116;2022-11-20T09:50:31;9.33;;;4.63;;
18808;SDS011;9532;54.322;10.116;2022-11-20T09:53:11;10.00;;;5.30;;
18808;SDS011;9532;54.322;10.116;2022-11-20T09:55:40;7.83;;;4.30;;
18808;SDS011;9532;54.322;10.116;2022-11-20T09:58:13;8.40;;;4.67;;
18808;SDS011;9532;54.322;10.116;2022-11-20T10:00:54;10.70;;;5.53;;
18808;SDS011;9532;54.322;10.116;2022-11-20T10:03:29;10.77;;;5.23;;
18808;SDS011;9532;54.322;10.116;2022-11-20T10:06:05;14.20;;;5.50;;
18808;SDS011;9532;54.322;10.116;2022-11-20T10:08:40;9.53;;;5.30;;
18808;SDS011;9532;54.322;10.116;2022-11-20T10:11:13;10.73;;;5.53;;
18808;SDS011;9532;54.322;10.116;2022-11-20T10:13:48;12.33;;;5.50;;
18808;SDS011;9532;54.322;10.116;2022-11-20T10:16:26;10.90;;;4.80;;
18808;SDS011;9532;54.322;10.116;2022-11-20T10:19:03;13.63;;;5.60;;
18808;SDS011;9532;54.322;10.116;2022-11-20T10:21:52;9.63;;;5.30;;
18808;SDS011;9532;54.322;10.116;2022-11-20T10:24:34;9.83;;;5.20;;
18808;SDS011;9532;54.322;10.116;2022-11-20T10:27:23;14.70;;;6.13;;
18808;SDS011;9532;54.322;10.116;2022-11-20T10:30:09;12.30;;;5.03;;
18808;SDS011;9532;54.322;10.116;2022-11-20T10:32:40;10.00;;;5.40;;
18808;SDS011;9532;54.322;10.116;2022-11-20T10:35:14;10.13;;;5.27;;
18808;SDS011;9532;54.322;10.116;2022-11-20T10:37:48;14.33;;;5.17;;
18808;SDS011;9532;54.322;10.116;2022-11-20T10:40:21;11.07;;;5.23;;
18808;SDS011;9532;54.322;10.116;2022-11-20T10:42:54;9.20;;;4.90;;
18808;SDS011;9532;54.322;10.116;2022-11-20T10:45:39;9.50;;;4.90;;
18808;SDS011;9532;54.322;10.116;2022-11-20T10:48:17;10.97;;;4.97;;
18808;SDS011;9532;54.322;10.116;2022-11-20T10:50:55;10.37;;;5.27;;
18808;SDS011;9532;54.322;10.116;2022-11-20T10:56:25;6.97;;;4.27;;
18808;SDS011;9532;54.322;10.116;2022-11-20T10:59:03;7.97;;;4.80;;
18808;SDS011;9532;54.322;10.116;2022-11-20T11:01:50;8.60;;;4.73;;
18808;SDS011;9532;54.322;10.116;2022-11-20T11:04:26;7.50;;;4.50;;
18808;SDS011;9532;54.322;10.116;2022-11-20T11:07:03;8.73;;;4.73;;
18808;SDS011;9532;54.322;10.116;2022-11-20T11:09:37;9.47;;;4.60;;
18808;SDS011;9532;54.322;10.116;2022-11-20T11:12:08;10.30;;;4.40;;
18808;SDS011;9532;54.322;10.116;2022-11-20T11:14:43;10.80;;;4.60;;
18808;SDS011;9532;54.322;10.116;2022-11-20T11:17:21;9.37;;;4.80;;
18808;SDS011;9532;54.322;10.116;2022-11-20T11:19:58;7.80;;;4.37;;
18808;SDS011;9532;54.322;10.116;2022-11-20T11:22:27;7.70;;;4.13;;
18808;SDS011;9532;54.322;10.116;2022-11-20T11:24:55;9.67;;;4.30;;
18808;SDS011;9532;54.322;10.116;2022-11-20T11:27:23;7.07;;;3.93;;
18808;SDS011;9532;54.322;10.116;2022-11-20T11:29:50;10.00;;;4.37;;
18808;SDS011;9532;54.322;10.116;2022-11-20T11:32:32;7.47;;;4.07;;
18808;SDS011;9532;54.322;10.116;2022-11-20T11:34:59;7.67;;;3.83;;
18808;SDS011;9532;54.322;10.116;2022-11-20T11:37:27;6.67;;;3.90;;
18808;SDS011;9532;54.322;10.116;2022-11-20T11:40:00;7.50;;;3.50;;
18808;SDS011;9532;54.322;10.116;2022-11-20T11:42:28;8.63;;;4.10;;
18808;SDS011;9532;54.322;10.116;2022-11-20T11:44:56;9.10;;;4.33;;
18808;SDS011;9532;54.322;10.116;2022-11-20T11:47:32;7.23;;;3.87;;
18808;SDS011;9532;54.322;10.116;2022-11-20T11:50:07;8.07;;;3.87;;
18808;SDS011;9532;54.322;10.116;2022-11-20T11:52:43;7.57;;;3.90;;
18808;SDS011;9532;54.322;10.116;2022-11-20T11:55:15;7.30;;;3.73;;
18808;SDS011;9532;54.322;10.116;2022-11-20T11:57:51;11.23;;;3.70;;
18808;SDS011;9532;54.322;10.116;2022-11-20T12:00:22;10.47;;;3.87;;
18808;SDS011;9532;54.322;10.116;2022-11-20T12:02:56;6.73;;;3.90;;
18808;SDS011;9532;54.322;10.116;2022-11-20T12:05:34;9.40;;;3.80;;
18808;SDS011;9532;54.322;10.116;2022-11-20T12:08:10;7.30;;;3.60;;
18808;SDS011;9532;54.322;10.116;2022-11-20T12:10:43;7.27;;;3.50;;
18808;SDS011;9532;54.322;10.116;2022-11-20T12:13:20;7.53;;;3.90;;
18808;SDS011;9532;54.322;10.116;2022-11-20T12:15:54;9.53;;;3.50;;
18808;SDS011;9532;54.322;10.116;2022-11-20T12:18:23;10.53;;;3.90;;
18808;SDS011;9532;54.322;10.116;2022-11-20T12:20:54;9.33;;;3.27;;
18808;SDS011;9532;54.322;10.116;2022-11-20T12:23:35;6.47;;;3.53;;
18808;SDS011;9532;54.322;10.116;2022-11-20T12:26:15;12.10;;;3.60;;
18808;SDS011;9532;54.322;10.116;2022-11-20T12:28:56;7.10;;;3.27;;
18808;SDS011;9532;54.322;10.116;2022-11-20T12:31:37;9.57;;;3.90;;
18808;SDS011;9532;54.322;10.116;2022-11-20T12:34:27;7.47;;;3.23;;
18808;SDS011;9532;54.322;10.116;2022-11-20T12:37:16;9.17;;;3.10;;
18808;SDS011;9532;54.322;10.116;2022-11-20T12:39:53;7.60;;;3.00;;
18808;SDS011;9532;54.322;10.116;2022-11-20T12:48:36;5.07;;;2.83;;
18808;SDS011;9532;54.322;10.116;2022-11-20T12:51:36;5.43;;;3.00;;
18808;SDS011;9532;54.322;10.116;2022-11-20T12:54:22;7.07;;;3.07;;
18808;SDS011;9532;54.322;10.116;2022-11-20T12:57:13;5.10;;;3.00;;
18808;SDS011;9532;54.322;10.116;2022-11-20T12:59:58;5.67;;;2.90;;
18808;SDS011;9532;54.322;10.116;2022-11-20T13:02:37;5.33;;;2.80;;
18808;SDS011;9532;54.322;10.116;2022-11-20T13:05:18;8.60;;;3.17;;
18808;SDS011;9532;54.322;10.116;2022-11-20T13:07:49;6.60;;;3.00;;
18808;SDS011;9532;54.322;10.116;2022-11-20T13:10:21;5.23;;;2.77;;
18808;SDS011;9532;54.322;10.116;2022-11-20T13:12:54;10.67;;;3.30;;
18808;SDS011;9532;54.322;10.116;2022-11-20T13:15:32;7.50;;;3.30;;
18808;SDS011;9532;54.322;10.116;2022-11-20T13:18:08;6.40;;;3.20;;
18808;SDS011;9532;54.322;10.116;2022-11-20T13:20:41;5.90;;;2.83;;
18808;SDS011;9532;54.322;10.116;2022-11-20T13:23:11;6.97;;;3.23;;
18808;SDS011;9532;54.322;10.116;2022-11-20T13:25:49;5.13;;;2.80;;
18808;SDS011;9532;54.322;10.116;2022-11-20T13:28:27;5.53;;;2.80;;
18808;SDS011;9532;54.322;10.116;2022-11-20T13:30:56;5.43;;;2.83;;
18808;SDS011;9532;54.322;10.116;2022-11-20T13:33:27;5.47;;;3.00;;
18808;SDS011;9532;54.322;10.116;2022-11-20T13:35:57;5.43;;;2.93;;
18808;SDS011;9532;54.322;10.116;2022-11-20T13:38:28;5.70;;;3.03;;
18808;SDS011;9532;54.322;10.116;2022-11-20T13:41:06;5.10;;;2.80;;
18808;SDS011;9532;54.322;10.116;2022-11-20T13:43:48;5.37;;;2.73;;
18808;SDS011;9532;54.322;10.116;2022-11-20T13:46:15;8.17;;;3.47;;
18808;SDS011;9532;54.322;10.116;2022-11-20T13:48:49;5.17;;;2.80;;
18808;SDS011;9532;54.322;10.116;2022-11-20T13:51:25;5.87;;;2.77;;
18808;SDS011;9532;54.322;10.116;2022-11-20T13:54:07;5.60;;;3.23;;
18808;SDS011;9532;54.322;10.116;2022-11-20T13:57:16;8.50;;;3.40;;
18808;SDS011;9532;54.322;10.116;2022-11-20T13:59:57;5.70;;;3.10;;
18808;SDS011;9532;54.322;10.116;2022-11-20T14:02:27;7.90;;;3.20;;
18808;SDS011;9532;54.322;10.116;2022-11-20T14:04:56;6.27;;;3.50;;
18808;SDS011;9532;54.322;10.116;2022-11-20T14:07:27;7.67;;;3.87;;
18808;SDS011;9532;54.322;10.116;2022-11-20T14:10:04;8.47;;;3.57;;
18808;SDS011;9532;54.322;10.116;2022-11-20T14:12:32;9.60;;;3.63;;
18808;SDS011;9532;54.322;10.116;2022-11-20T14:15:02;7.93;;;3.97;;
18808;SDS011;9532;54.322;10.116;2022-11-20T14:17:30;9.00;;;3.60;;
18808;SDS011;9532;54.322;10.116;2022-11-20T14:20:00;9.57;;;3.80;;
18808;SDS011;9532;54.322;10.116;2022-11-20T14:22:30;7.73;;;4.20;;
18808;SDS011;9532;54.322;10.116;2022-11-20T14:25:02;7.13;;;3.67;;
18808;SDS011;9532;54.322;10.116;2022-11-20T14:27:33;6.40;;;3.60;;
18808;SDS011;9532;54.322;10.116;2022-11-20T14:30:03;8.13;;;4.43;;
18808;SDS011;9532;54.322;10.116;2022-11-20T14:32:31;8.17;;;4.47;;
18808;SDS011;9532;54.322;10.116;2022-11-20T14:35:06;11.73;;;4.97;;
18808;SDS011;9532;54.322;10.116;2022-11-20T14:37:36;10.10;;;5.20;;
18808;SDS011;9532;54.322;10.116;2022-11-20T14:40:20;10.13;;;4.97;;
18808;SDS011;9532;54.322;10.116;2022-11-20T14:42:49;15.23;;;5.47;;
18808;SDS011;9532;54.322;10.116;2022-11-20T14:45:16;12.47;;;5.27;;
18808;SDS011;9532;54.322;10.116;2022-11-20T14:47:45;11.10;;;5.03;;
18808;SDS011;9532;54.322;10.116;2022-11-20T14:50:13;9.73;;;5.37;;
18808;SDS011;9532;54.322;10.116;2022-11-20T14:52:52;10.40;;;5.27;;
18808;SDS011;9532;54.322;10.116;2022-11-20T14:55:30;13.00;;;5.20;;
18808;SDS011;9532;54.322;10.116;2022-11-20T14:57:59;10.43;;;5.30;;
18808;SDS011;9532;54.322;10.116;2022-11-20T15:00:28;11.93;;;5.47;;
18808;SDS011;9532;54.322;10.116;2022-11-20T15:02:56;12.97;;;6.70;;
18808;SDS011;9532;54.322;10.116;2022-11-20T15:05:24;13.13;;;5.67;;
18808;SDS011;9532;54.322;10.116;2022-11-20T15:08:04;14.63;;;5.37;;
18808;SDS011;9532;54.322;10.116;2022-11-20T15:10:34;13.50;;;6.70;;
18808;SDS011;9532;54.322;10.116;2022-11-20T15:13:03;11.43;;;5.40;;
18808;SDS011;9532;54.322;10.116;2022-11-20T15:15:39;11.30;;;5.13;;
18808;SDS011;9532;54.322;10.116;2022-11-20T15:18:13;11.63;;;6.20;;
18808;SDS011;9532;54.322;10.116;2022-11-20T15:20:42;13.77;;;5.83;;